sensor_id;sensor_type;location;lat;lon;timestamp;temperature;humidity
21807;DHT22;11065;50.786;7.840;2023-02-12T00:01:26;9.90;57.90
21807;DHT22;11065;50.786;7.840;2023-02-12T00:03:55;9.90;57.90
21807;DHT22;11065;50.786;7.840;2023-02-12T00:06:26;9.90;58.00
21807;DHT22;11065;50.786;7.840;2023-02-12T00:08:55;9.90;57.90
21807;DHT22;11065;50.786;7.840;2023-02-12T00:11:25;9.90;57.90
21807;DHT22;11065;50.786;7.840;2023-02-12T00:13:55;9.90;57.90
21807;DHT22;11065;50.786;7.840;2023-02-12T00:16:26;9.90;57.90
21807;DHT22;11065;50.786;7.840;2023-02-12T00:18:56;9.80;57.90
21807;DHT22;11065;50.786;7.840;2023-02-12T00:21:26;9.90;57.90
21807;DHT22;11065;50.786;7.840;2023-02-12T00:23:55;9.90;57.90
21807;DHT22;11065;50.786;7.840;2023-02-12T00:26:24;9.80;57.90
21807;DHT22;11065;50.786;7.840;2023-02-12T00:28:53;9.80;57.90
21807;DHT22;11065;50.786;7.840;2023-02-12T00:31:25;9.80;58.00
21807;DHT22;11065;50.786;7.840;2023-02-12T00:33:58;9.80;58.00
21807;DHT22;11065;50.786;7.840;2023-02-12T00:36:29;9.80;58.00
21807;DHT22;11065;50.786;7.840;2023-02-12T00:38:59;9.80;58.10
21807;DHT22;11065;50.786;7.840;2023-02-12T00:41:27;9.80;58.10
21807;DHT22;11065;50.786;7.840;2023-02-12T00:43:56;9.80;58.00
21807;DHT22;11065;50.786;7.840;2023-02-12T00:46:25;9.80;58.10
21807;DHT22;11065;50.786;7.840;2023-02-12T00:48:54;9.80;58.10
21807;DHT22;11065;50.786;7.840;2023-02-12T00:51:22;9.80;58.00
21807;DHT22;11065;50.786;7.840;2023-02-12T00:53:52;9.80;58.00
21807;DHT22;11065;50.786;7.840;2023-02-12T00:56:21;9.80;58.10
21807;DHT22;11065;50.786;7.840;2023-02-12T00:58:52;9.80;58.00
21807;DHT22;11065;50.786;7.840;2023-02-12T01:01:20;9.80;58.00
21807;DHT22;11065;50.786;7.840;2023-02-12T01:03:49;9.90;58.10
21807;DHT22;11065;50.786;7.840;2023-02-12T01:06:18;9.80;58.00
21807;DHT22;11065;50.786;7.840;2023-02-12T01:08:49;9.80;58.00
21807;DHT22;11065;50.786;7.840;2023-02-12T01:11:19;9.80;58.00
21807;DHT22;11065;50.786;7.840;2023-02-12T01:13:48;9.80;58.00
21807;DHT22;11065;50.786;7.840;2023-02-12T01:16:18;9.80;58.00
21807;DHT22;11065;50.786;7.840;2023-02-12T01:18:48;9.80;58.10
21807;DHT22;11065;50.786;7.840;2023-02-12T01:21:22;9.80;58.10
21807;DHT22;11065;50.786;7.840;2023-02-12T01:23:50;9.80;58.10
21807;DHT22;11065;50.786;7.840;2023-02-12T01:26:21;9.80;58.10
21807;DHT22;11065;50.786;7.840;2023-02-12T01:28:51;9.80;58.10
21807;DHT22;11065;50.786;7.840;2023-02-12T01:31:21;9.80;58.10
21807;DHT22;11065;50.786;7.840;2023-02-12T01:33:51;9.80;58.10
21807;DHT22;11065;50.786;7.840;2023-02-12T01:36:21;9.70;58.10
21807;DHT22;11065;50.786;7.840;2023-02-12T01:38:49;9.80;58.10
21807;DHT22;11065;50.786;7.840;2023-02-12T01:41:21;9.70;58.10
21807;DHT22;11065;50.786;7.840;2023-02-12T01:44:12;9.70;58.10
21807;DHT22;11065;50.786;7.840;2023-02-12T01:46:43;9.70;58.30
21807;DHT22;11065;50.786;7.840;2023-02-12T01:49:16;9.70;58.10
21807;DHT22;11065;50.786;7.840;2023-02-12T01:51:50;9.70;58.10
21807;DHT22;11065;50.786;7.840;2023-02-12T01:54:20;9.70;58.10
21807;DHT22;11065;50.786;7.840;2023-02-12T01:56:53;9.70;58.10
21807;DHT22;11065;50.786;7.840;2023-02-12T01:59:23;9.70;58.10
21807;DHT22;11065;50.786;7.840;2023-02-12T02:01:53;9.70;58.10
21807;DHT22;11065;50.786;7.840;2023-02-12T02:04:26;9.70;58.10
21807;DHT22;11065;50.786;7.840;2023-02-12T02:06:57;9.70;58.10
21807;DHT22;11065;50.786;7.840;2023-02-12T02:09:27;9.70;58.00
21807;DHT22;11065;50.786;7.840;2023-02-12T02:11:57;9.70;58.10
21807;DHT22;11065;50.786;7.840;2023-02-12T02:14:44;9.70;58.10
21807;DHT22;11065;50.786;7.840;2023-02-12T02:17:27;9.60;58.00
21807;DHT22;11065;50.786;7.840;2023-02-12T02:23:36;9.60;58.20
21807;DHT22;11065;50.786;7.840;2023-02-12T02:26:21;9.60;58.20
21807;DHT22;11065;50.786;7.840;2023-02-12T02:29:09;9.60;58.10
21807;DHT22;11065;50.786;7.840;2023-02-12T02:31:46;9.60;58.10
21807;DHT22;11065;50.786;7.840;2023-02-12T02:34:19;9.60;58.00
21807;DHT22;11065;50.786;7.840;2023-02-12T02:36:52;9.50;58.00
21807;DHT22;11065;50.786;7.840;2023-02-12T02:39:31;9.50;58.00
21807;DHT22;11065;50.786;7.840;2023-02-12T02:42:07;9.50;58.00
21807;DHT22;11065;50.786;7.840;2023-02-12T02:44:43;9.50;58.10
21807;DHT22;11065;50.786;7.840;2023-02-12T02:47:16;9.50;58.10
21807;DHT22;11065;50.786;7.840;2023-02-12T02:49:50;9.40;58.00
21807;DHT22;11065;50.786;7.840;2023-02-12T02:52:25;9.50;58.20
21807;DHT22;11065;50.786;7.840;2023-02-12T02:55:00;9.40;58.20
21807;DHT22;11065;50.786;7.840;2023-02-12T02:57:33;9.40;58.20
21807;DHT22;11065;50.786;7.840;2023-02-12T03:00:11;9.40;58.20
21807;DHT22;11065;50.786;7.840;2023-02-12T03:02:45;9.40;58.30
21807;DHT22;11065;50.786;7.840;2023-02-12T03:05:19;9.40;58.30
21807;DHT22;11065;50.786;7.840;2023-02-12T03:07:51;9.40;58.40
21807;DHT22;11065;50.786;7.840;2023-02-12T03:10:24;9.40;58.40
21807;DHT22;11065;50.786;7.840;2023-02-12T03:12:58;9.40;58.50
21807;DHT22;11065;50.786;7.840;2023-02-12T03:15:31;9.40;58.40
21807;DHT22;11065;50.786;7.840;2023-02-12T03:18:06;9.50;58.50
21807;DHT22;11065;50.786;7.840;2023-02-12T03:20:38;9.50;58.50
21807;DHT22;11065;50.786;7.840;2023-02-12T03:23:11;9.50;58.50
21807;DHT22;11065;50.786;7.840;2023-02-12T03:25:47;9.40;58.40
21807;DHT22;11065;50.786;7.840;2023-02-12T03:28:20;9.50;58.50
21807;DHT22;11065;50.786;7.840;2023-02-12T03:30:52;9.50;58.50
21807;DHT22;11065;50.786;7.840;2023-02-12T03:33:29;9.50;58.50
21807;DHT22;11065;50.786;7.840;2023-02-12T03:36:05;9.50;58.60
21807;DHT22;11065;50.786;7.840;2023-02-12T03:38:38;9.50;58.50
21807;DHT22;11065;50.786;7.840;2023-02-12T03:41:12;9.50;58.50
21807;DHT22;11065;50.786;7.840;2023-02-12T03:43:47;9.50;58.90
21807;DHT22;11065;50.786;7.840;2023-02-12T03:46:21;9.50;58.60
21807;DHT22;11065;50.786;7.840;2023-02-12T03:48:58;9.50;58.60
21807;DHT22;11065;50.786;7.840;2023-02-12T03:51:34;9.50;58.70
21807;DHT22;11065;50.786;7.840;2023-02-12T03:54:04;9.50;58.70
21807;DHT22;11065;50.786;7.840;2023-02-12T03:56:37;9.50;58.60
21807;DHT22;11065;50.786;7.840;2023-02-12T03:59:07;9.50;58.70
21807;DHT22;11065;50.786;7.840;2023-02-12T04:01:35;9.50;58.90
21807;DHT22;11065;50.786;7.840;2023-02-12T04:04:07;9.50;58.60
21807;DHT22;11065;50.786;7.840;2023-02-12T04:06:37;9.60;58.70
21807;DHT22;11065;50.786;7.840;2023-02-12T04:09:07;9.50;58.60
21807;DHT22;11065;50.786;7.840;2023-02-12T04:11:46;9.50;58.70
21807;DHT22;11065;50.786;7.840;2023-02-12T04:14:23;9.50;58.70
21807;DHT22;11065;50.786;7.840;2023-02-12T04:16:59;9.50;58.60
21807;DHT22;11065;50.786;7.840;2023-02-12T04:19:39;9.60;58.60
21807;DHT22;11065;50.786;7.840;2023-02-12T04:22:22;9.60;58.70
21807;DHT22;11065;50.786;7.840;2023-02-12T04:25:03;9.60;58.70
21807;DHT22;11065;50.786;7.840;2023-02-12T04:27:37;9.60;58.70
21807;DHT22;11065;50.786;7.840;2023-02-12T04:30:12;9.60;58.70
21807;DHT22;11065;50.786;7.840;2023-02-12T04:32:46;9.60;58.70
21807;DHT22;11065;50.786;7.840;2023-02-12T04:35:21;9.60;58.70
21807;DHT22;11065;50.786;7.840;2023-02-12T04:37:56;9.60;58.70
21807;DHT22;11065;50.786;7.840;2023-02-12T04:40:27;9.60;58.70
21807;DHT22;11065;50.786;7.840;2023-02-12T04:42:56;9.60;58.60
21807;DHT22;11065;50.786;7.840;2023-02-12T04:45:27;9.60;58.60
21807;DHT22;11065;50.786;7.840;2023-02-12T04:47:55;9.60;58.80
21807;DHT22;11065;50.786;7.840;2023-02-12T04:50:26;9.60;58.70
21807;DHT22;11065;50.786;7.840;2023-02-12T04:52:56;9.60;58.80
21807;DHT22;11065;50.786;7.840;2023-02-12T04:55:24;9.60;58.70
21807;DHT22;11065;50.786;7.840;2023-02-12T04:57:54;9.60;58.60
21807;DHT22;11065;50.786;7.840;2023-02-12T05:00:23;9.60;58.60
21807;DHT22;11065;50.786;7.840;2023-02-12T05:02:51;9.60;58.60
21807;DHT22;11065;50.786;7.840;2023-02-12T05:05:20;9.60;58.70
21807;DHT22;11065;50.786;7.840;2023-02-12T05:07:50;9.60;58.70
21807;DHT22;11065;50.786;7.840;2023-02-12T05:10:19;9.60;58.70
21807;DHT22;11065;50.786;7.840;2023-02-12T05:12:47;9.60;58.70
21807;DHT22;11065;50.786;7.840;2023-02-12T05:15:18;9.60;58.70
21807;DHT22;11065;50.786;7.840;2023-02-12T05:17:47;9.60;58.60
21807;DHT22;11065;50.786;7.840;2023-02-12T05:20:15;9.60;58.70
21807;DHT22;11065;50.786;7.840;2023-02-12T05:22:44;9.60;58.70
21807;DHT22;11065;50.786;7.840;2023-02-12T05:25:14;9.60;58.70
21807;DHT22;11065;50.786;7.840;2023-02-12T05:27:42;9.60;58.80
21807;DHT22;11065;50.786;7.840;2023-02-12T05:30:12;9.60;58.80
21807;DHT22;11065;50.786;7.840;2023-02-12T05:32:40;9.60;58.80
21807;DHT22;11065;50.786;7.840;2023-02-12T05:35:08;9.60;58.80
21807;DHT22;11065;50.786;7.840;2023-02-12T05:37:37;9.60;58.80
21807;DHT22;11065;50.786;7.840;2023-02-12T05:40:07;9.60;58.80
21807;DHT22;11065;50.786;7.840;2023-02-12T05:42:37;9.60;58.90
21807;DHT22;11065;50.786;7.840;2023-02-12T05:45:07;9.60;58.80
21807;DHT22;11065;50.786;7.840;2023-02-12T05:47:35;9.60;58.80
21807;DHT22;11065;50.786;7.840;2023-02-12T05:50:04;9.60;58.90
21807;DHT22;11065;50.786;7.840;2023-02-12T05:52:33;9.60;58.80
21807;DHT22;11065;50.786;7.840;2023-02-12T05:55:02;9.60;58.80
21807;DHT22;11065;50.786;7.840;2023-02-12T05:57:30;9.60;58.80
21807;DHT22;11065;50.786;7.840;2023-02-12T06:00:00;9.60;58.80
21807;DHT22;11065;50.786;7.840;2023-02-12T06:02:38;9.60;58.90
21807;DHT22;11065;50.786;7.840;2023-02-12T06:05:06;9.60;58.70
21807;DHT22;11065;50.786;7.840;2023-02-12T06:07:35;9.60;58.70
21807;DHT22;11065;50.786;7.840;2023-02-12T06:10:05;9.60;58.80
21807;DHT22;11065;50.786;7.840;2023-02-12T06:12:34;9.50;58.70
21807;DHT22;11065;50.786;7.840;2023-02-12T06:15:05;9.50;58.80
21807;DHT22;11065;50.786;7.840;2023-02-12T06:17:34;9.50;58.90
21807;DHT22;11065;50.786;7.840;2023-02-12T06:20:03;9.50;58.90
21807;DHT22;11065;50.786;7.840;2023-02-12T06:22:31;9.50;59.00
21807;DHT22;11065;50.786;7.840;2023-02-12T06:24:59;9.50;59.00
21807;DHT22;11065;50.786;7.840;2023-02-12T06:27:28;9.50;59.00
21807;DHT22;11065;50.786;7.840;2023-02-12T06:29:56;9.50;59.00
21807;DHT22;11065;50.786;7.840;2023-02-12T06:32:26;9.50;59.00
21807;DHT22;11065;50.786;7.840;2023-02-12T06:34:55;9.50;59.00
21807;DHT22;11065;50.786;7.840;2023-02-12T06:37:23;9.50;59.00
21807;DHT22;11065;50.786;7.840;2023-02-12T06:39:53;9.50;59.00
21807;DHT22;11065;50.786;7.840;2023-02-12T06:42:21;9.50;59.00
21807;DHT22;11065;50.786;7.840;2023-02-12T06:44:50;9.50;59.00
21807;DHT22;11065;50.786;7.840;2023-02-12T06:47:19;9.50;59.00
21807;DHT22;11065;50.786;7.840;2023-02-12T06:49:48;9.50;59.00
21807;DHT22;11065;50.786;7.840;2023-02-12T06:52:17;9.50;59.10
21807;DHT22;11065;50.786;7.840;2023-02-12T06:54:47;9.50;59.10
21807;DHT22;11065;50.786;7.840;2023-02-12T06:57:15;9.50;59.10
21807;DHT22;11065;50.786;7.840;2023-02-12T06:59:44;9.50;59.10
21807;DHT22;11065;50.786;7.840;2023-02-12T07:02:13;9.50;59.20
21807;DHT22;11065;50.786;7.840;2023-02-12T07:04:41;9.60;59.20
21807;DHT22;11065;50.786;7.840;2023-02-12T07:07:11;9.60;59.30
21807;DHT22;11065;50.786;7.840;2023-02-12T07:09:41;9.60;59.20
21807;DHT22;11065;50.786;7.840;2023-02-12T07:12:09;9.60;59.20
21807;DHT22;11065;50.786;7.840;2023-02-12T07:14:37;9.60;59.20
21807;DHT22;11065;50.786;7.840;2023-02-12T07:17:05;9.60;59.20
21807;DHT22;11065;50.786;7.840;2023-02-12T07:19:35;9.60;59.20
21807;DHT22;11065;50.786;7.840;2023-02-12T07:22:03;9.60;59.20
21807;DHT22;11065;50.786;7.840;2023-02-12T07:24:32;9.60;59.20
21807;DHT22;11065;50.786;7.840;2023-02-12T07:27:00;9.60;59.30
21807;DHT22;11065;50.786;7.840;2023-02-12T07:29:28;9.60;59.30
21807;DHT22;11065;50.786;7.840;2023-02-12T07:31:56;9.60;59.30
21807;DHT22;11065;50.786;7.840;2023-02-12T07:34:25;9.70;59.40
21807;DHT22;11065;50.786;7.840;2023-02-12T07:36:53;9.70;59.40
21807;DHT22;11065;50.786;7.840;2023-02-12T07:39:21;9.70;59.50
21807;DHT22;11065;50.786;7.840;2023-02-12T07:41:50;9.70;59.50
21807;DHT22;11065;50.786;7.840;2023-02-12T07:44:18;9.70;59.50
21807;DHT22;11065;50.786;7.840;2023-02-12T07:46:48;9.80;59.50
21807;DHT22;11065;50.786;7.840;2023-02-12T07:49:18;9.80;59.60
21807;DHT22;11065;50.786;7.840;2023-02-12T07:51:47;9.80;59.60
21807;DHT22;11065;50.786;7.840;2023-02-12T07:54:16;9.80;59.50
21807;DHT22;11065;50.786;7.840;2023-02-12T07:56:44;9.90;59.60
21807;DHT22;11065;50.786;7.840;2023-02-12T07:59:16;9.90;59.60
21807;DHT22;11065;50.786;7.840;2023-02-12T08:01:45;9.90;59.60
21807;DHT22;11065;50.786;7.840;2023-02-12T08:04:17;9.90;59.60
21807;DHT22;11065;50.786;7.840;2023-02-12T08:06:47;9.90;59.60
21807;DHT22;11065;50.786;7.840;2023-02-12T08:09:17;9.90;59.70
21807;DHT22;11065;50.786;7.840;2023-02-12T08:11:45;10.00;59.70
21807;DHT22;11065;50.786;7.840;2023-02-12T08:14:16;10.00;59.70
21807;DHT22;11065;50.786;7.840;2023-02-12T08:16:46;10.00;59.80
21807;DHT22;11065;50.786;7.840;2023-02-12T08:19:15;10.10;59.80
21807;DHT22;11065;50.786;7.840;2023-02-12T08:21:50;10.10;59.80
21807;DHT22;11065;50.786;7.840;2023-02-12T08:24:18;10.10;59.80
21807;DHT22;11065;50.786;7.840;2023-02-12T08:26:47;10.10;59.80
21807;DHT22;11065;50.786;7.840;2023-02-12T08:29:19;10.10;59.80
21807;DHT22;11065;50.786;7.840;2023-02-12T08:31:49;10.20;59.90
21807;DHT22;11065;50.786;7.840;2023-02-12T08:34:19;10.20;59.80
21807;DHT22;11065;50.786;7.840;2023-02-12T08:36:48;10.20;59.90
21807;DHT22;11065;50.786;7.840;2023-02-12T08:39:16;10.30;59.90
21807;DHT22;11065;50.786;7.840;2023-02-12T08:41:45;10.30;59.90
21807;DHT22;11065;50.786;7.840;2023-02-12T08:44:14;10.40;60.00
21807;DHT22;11065;50.786;7.840;2023-02-12T08:46:45;10.40;60.00
21807;DHT22;11065;50.786;7.840;2023-02-12T08:49:15;10.40;60.00
21807;DHT22;11065;50.786;7.840;2023-02-12T08:51:46;10.50;60.00
21807;DHT22;11065;50.786;7.840;2023-02-12T08:54:16;10.50;60.00
21807;DHT22;11065;50.786;7.840;2023-02-12T08:56:45;10.50;60.10
21807;DHT22;11065;50.786;7.840;2023-02-12T08:59:14;10.60;60.10
21807;DHT22;11065;50.786;7.840;2023-02-12T09:01:44;10.60;60.10
21807;DHT22;11065;50.786;7.840;2023-02-12T09:04:14;10.60;60.20
21807;DHT22;11065;50.786;7.840;2023-02-12T09:06:45;10.80;60.30
21807;DHT22;11065;50.786;7.840;2023-02-12T09:09:13;10.80;60.20
21807;DHT22;11065;50.786;7.840;2023-02-12T09:11:41;10.90;60.10
21807;DHT22;11065;50.786;7.840;2023-02-12T09:14:12;10.90;60.10
21807;DHT22;11065;50.786;7.840;2023-02-12T09:16:40;11.00;60.10
21807;DHT22;11065;50.786;7.840;2023-02-12T09:19:12;11.10;60.10
21807;DHT22;11065;50.786;7.840;2023-02-12T09:21:41;11.10;60.20
21807;DHT22;11065;50.786;7.840;2023-02-12T09:24:09;11.20;60.20
21807;DHT22;11065;50.786;7.840;2023-02-12T09:26:38;11.30;60.30
21807;DHT22;11065;50.786;7.840;2023-02-12T09:29:06;11.40;60.30
21807;DHT22;11065;50.786;7.840;2023-02-12T09:31:34;11.50;60.30
21807;DHT22;11065;50.786;7.840;2023-02-12T09:34:05;11.50;60.20
21807;DHT22;11065;50.786;7.840;2023-02-12T09:36:34;11.70;60.20
21807;DHT22;11065;50.786;7.840;2023-02-12T09:39:03;11.80;60.00
21807;DHT22;11065;50.786;7.840;2023-02-12T09:41:49;11.90;60.10
21807;DHT22;11065;50.786;7.840;2023-02-12T09:44:26;12.00;60.10
21807;DHT22;11065;50.786;7.840;2023-02-12T09:46:59;12.10;60.10
21807;DHT22;11065;50.786;7.840;2023-02-12T09:49:57;12.20;59.90
21807;DHT22;11065;50.786;7.840;2023-02-12T09:52:29;12.40;59.70
21807;DHT22;11065;50.786;7.840;2023-02-12T09:54:58;12.50;59.60
21807;DHT22;11065;50.786;7.840;2023-02-12T09:57:28;12.50;59.50
21807;DHT22;11065;50.786;7.840;2023-02-12T10:00:04;12.60;59.40
21807;DHT22;11065;50.786;7.840;2023-02-12T10:02:35;12.60;59.20
21807;DHT22;11065;50.786;7.840;2023-02-12T10:05:05;12.70;59.10
21807;DHT22;11065;50.786;7.840;2023-02-12T10:07:55;12.80;59.00
21807;DHT22;11065;50.786;7.840;2023-02-12T10:10:35;12.80;58.90
21807;DHT22;11065;50.786;7.840;2023-02-12T10:13:09;12.80;58.80
21807;DHT22;11065;50.786;7.840;2023-02-12T10:15:44;12.90;58.90
21807;DHT22;11065;50.786;7.840;2023-02-12T10:18:29;12.90;59.00
21807;DHT22;11065;50.786;7.840;2023-02-12T10:21:10;13.00;59.00
21807;DHT22;11065;50.786;7.840;2023-02-12T10:24:01;13.10;59.00
21807;DHT22;11065;50.786;7.840;2023-02-12T10:26:35;13.10;58.90
21807;DHT22;11065;50.786;7.840;2023-02-12T10:29:11;13.20;58.90
21807;DHT22;11065;50.786;7.840;2023-02-12T10:31:43;13.30;58.60
21807;DHT22;11065;50.786;7.840;2023-02-12T10:34:17;13.40;58.70
21807;DHT22;11065;50.786;7.840;2023-02-12T10:36:47;13.40;58.60
21807;DHT22;11065;50.786;7.840;2023-02-12T10:39:20;13.40;58.60
21807;DHT22;11065;50.786;7.840;2023-02-12T10:41:54;13.50;58.60
21807;DHT22;11065;50.786;7.840;2023-02-12T10:44:23;13.60;58.60
21807;DHT22;11065;50.786;7.840;2023-02-12T10:46:51;13.70;58.50
21807;DHT22;11065;50.786;7.840;2023-02-12T10:49:19;13.70;58.30
21807;DHT22;11065;50.786;7.840;2023-02-12T10:51:58;13.80;58.30
21807;DHT22;11065;50.786;7.840;2023-02-12T10:54:34;13.90;58.20
21807;DHT22;11065;50.786;7.840;2023-02-12T10:57:23;14.00;58.20
21807;DHT22;11065;50.786;7.840;2023-02-12T10:59:54;14.10;57.80
21807;DHT22;11065;50.786;7.840;2023-02-12T11:02:26;14.20;58.10
21807;DHT22;11065;50.786;7.840;2023-02-12T11:04:56;14.30;58.00
21807;DHT22;11065;50.786;7.840;2023-02-12T11:07:27;14.30;57.80
21807;DHT22;11065;50.786;7.840;2023-02-12T11:09:56;14.40;57.60
21807;DHT22;11065;50.786;7.840;2023-02-12T11:12:35;14.50;57.60
21807;DHT22;11065;50.786;7.840;2023-02-12T11:15:12;14.60;57.20
21807;DHT22;11065;50.786;7.840;2023-02-12T11:17:42;14.60;57.10
21807;DHT22;11065;50.786;7.840;2023-02-12T11:20:23;14.70;57.10
21807;DHT22;11065;50.786;7.840;2023-02-12T11:22:53;14.70;56.60
21807;DHT22;11065;50.786;7.840;2023-02-12T11:25:25;14.70;56.70
21807;DHT22;11065;50.786;7.840;2023-02-12T11:28:03;14.80;56.50
21807;DHT22;11065;50.786;7.840;2023-02-12T11:30:32;14.80;56.30
21807;DHT22;11065;50.786;7.840;2023-02-12T11:33:21;14.70;56.30
21807;DHT22;11065;50.786;7.840;2023-02-12T11:35:54;14.70;55.80
21807;DHT22;11065;50.786;7.840;2023-02-12T11:38:27;14.70;56.00
21807;DHT22;11065;50.786;7.840;2023-02-12T11:41:04;14.70;56.00
21807;DHT22;11065;50.786;7.840;2023-02-12T11:43:34;14.60;55.80
21807;DHT22;11065;50.786;7.840;2023-02-12T11:46:06;14.60;55.90
21807;DHT22;11065;50.786;7.840;2023-02-12T11:48:36;14.60;55.80
21807;DHT22;11065;50.786;7.840;2023-02-12T11:51:07;14.60;56.10
21807;DHT22;11065;50.786;7.840;2023-02-12T11:53:42;14.50;55.70
21807;DHT22;11065;50.786;7.840;2023-02-12T11:56:15;14.50;55.80
21807;DHT22;11065;50.786;7.840;2023-02-12T11:58:44;14.50;55.80
21807;DHT22;11065;50.786;7.840;2023-02-12T12:01:17;14.40;55.80
21807;DHT22;11065;50.786;7.840;2023-02-12T12:03:53;14.40;55.70
21807;DHT22;11065;50.786;7.840;2023-02-12T12:06:31;14.40;55.70
21807;DHT22;11065;50.786;7.840;2023-02-12T12:09:04;14.40;55.70
21807;DHT22;11065;50.786;7.840;2023-02-12T12:11:42;14.40;55.70
21807;DHT22;11065;50.786;7.840;2023-02-12T12:14:19;14.40;55.70
21807;DHT22;11065;50.786;7.840;2023-02-12T12:16:53;14.40;55.60
21807;DHT22;11065;50.786;7.840;2023-02-12T12:19:51;14.40;55.60
21807;DHT22;11065;50.786;7.840;2023-02-12T12:22:30;14.50;55.70
21807;DHT22;11065;50.786;7.840;2023-02-12T12:25:09;14.30;55.50
21807;DHT22;11065;50.786;7.840;2023-02-12T12:27:47;14.30;55.40
21807;DHT22;11065;50.786;7.840;2023-02-12T12:33:37;14.30;55.40
21807;DHT22;11065;50.786;7.840;2023-02-12T12:39:10;14.30;55.20
21807;DHT22;11065;50.786;7.840;2023-02-12T12:41:46;14.30;55.40
21807;DHT22;11065;50.786;7.840;2023-02-12T12:44:28;14.30;55.40
21807;DHT22;11065;50.786;7.840;2023-02-12T12:47:09;14.20;55.30
21807;DHT22;11065;50.786;7.840;2023-02-12T12:49:57;14.20;55.40
21807;DHT22;11065;50.786;7.840;2023-02-12T12:52:50;14.20;55.30
21807;DHT22;11065;50.786;7.840;2023-02-12T12:55:34;14.20;55.30
21807;DHT22;11065;50.786;7.840;2023-02-12T12:58:11;14.20;55.40
21807;DHT22;11065;50.786;7.840;2023-02-12T13:00:59;14.20;55.40
21807;DHT22;11065;50.786;7.840;2023-02-12T13:03:52;14.10;55.20
21807;DHT22;11065;50.786;7.840;2023-02-12T13:06:44;14.20;55.10
21807;DHT22;11065;50.786;7.840;2023-02-12T13:09:28;14.10;55.10
21807;DHT22;11065;50.786;7.840;2023-02-12T13:12:12;14.10;55.20
21807;DHT22;11065;50.786;7.840;2023-02-12T13:14:52;14.10;55.30
21807;DHT22;11065;50.786;7.840;2023-02-12T13:17:27;14.10;55.40
21807;DHT22;11065;50.786;7.840;2023-02-12T13:20:03;14.10;55.40
21807;DHT22;11065;50.786;7.840;2023-02-12T13:22:38;14.10;56.00
21807;DHT22;11065;50.786;7.840;2023-02-12T13:25:20;14.10;55.60
21807;DHT22;11065;50.786;7.840;2023-02-12T13:27:50;14.10;55.50
21807;DHT22;11065;50.786;7.840;2023-02-12T13:30:21;14.10;55.60
21807;DHT22;11065;50.786;7.840;2023-02-12T13:33:00;14.10;55.50
21807;DHT22;11065;50.786;7.840;2023-02-12T13:35:30;14.10;55.40
21807;DHT22;11065;50.786;7.840;2023-02-12T13:37:59;14.20;55.50
21807;DHT22;11065;50.786;7.840;2023-02-12T13:40:29;14.20;55.50
21807;DHT22;11065;50.786;7.840;2023-02-12T13:43:04;14.20;55.50
21807;DHT22;11065;50.786;7.840;2023-02-12T13:45:41;14.20;55.40
21807;DHT22;11065;50.786;7.840;2023-02-12T13:48:38;14.20;55.30
21807;DHT22;11065;50.786;7.840;2023-02-12T13:51:16;14.20;55.20
21807;DHT22;11065;50.786;7.840;2023-02-12T13:53:51;14.20;55.30
21807;DHT22;11065;50.786;7.840;2023-02-12T13:56:31;14.30;55.40
21807;DHT22;11065;50.786;7.840;2023-02-12T13:59:00;14.30;55.30
21807;DHT22;11065;50.786;7.840;2023-02-12T14:01:39;14.20;55.30
21807;DHT22;11065;50.786;7.840;2023-02-12T14:04:32;14.20;55.10
21807;DHT22;11065;50.786;7.840;2023-02-12T14:07:02;14.20;55.10
21807;DHT22;11065;50.786;7.840;2023-02-12T14:09:35;14.20;55.20
21807;DHT22;11065;50.786;7.840;2023-02-12T14:12:06;14.20;55.10
21807;DHT22;11065;50.786;7.840;2023-02-12T14:14:38;14.20;55.10
21807;DHT22;11065;50.786;7.840;2023-02-12T14:17:40;14.20;55.20
21807;DHT22;11065;50.786;7.840;2023-02-12T14:20:25;14.20;55.00
21807;DHT22;11065;50.786;7.840;2023-02-12T14:23:02;14.20;55.10
21807;DHT22;11065;50.786;7.840;2023-02-12T14:25:59;14.10;55.10
21807;DHT22;11065;50.786;7.840;2023-02-12T14:28:40;14.10;55.10
21807;DHT22;11065;50.786;7.840;2023-02-12T14:31:30;14.10;55.00
21807;DHT22;11065;50.786;7.840;2023-02-12T14:37:37;14.10;55.00
21807;DHT22;11065;50.786;7.840;2023-02-12T14:40:36;14.00;55.00
21807;DHT22;11065;50.786;7.840;2023-02-12T14:43:28;14.00;55.00
21807;DHT22;11065;50.786;7.840;2023-02-12T14:45:58;14.00;55.00
21807;DHT22;11065;50.786;7.840;2023-02-12T14:48:51;14.00;55.10
21807;DHT22;11065;50.786;7.840;2023-02-12T14:51:32;13.90;55.00
21807;DHT22;11065;50.786;7.840;2023-02-12T14:54:04;13.90;55.10
21807;DHT22;11065;50.786;7.840;2023-02-12T14:56:44;13.90;55.10
21807;DHT22;11065;50.786;7.840;2023-02-12T14:59:15;13.90;55.20
21807;DHT22;11065;50.786;7.840;2023-02-12T15:01:44;13.90;55.20
21807;DHT22;11065;50.786;7.840;2023-02-12T15:04:18;13.90;55.20
21807;DHT22;11065;50.786;7.840;2023-02-12T15:06:50;13.90;55.20
21807;DHT22;11065;50.786;7.840;2023-02-12T15:09:25;13.90;55.20
21807;DHT22;11065;50.786;7.840;2023-02-12T15:12:01;13.80;55.10
21807;DHT22;11065;50.786;7.840;2023-02-12T15:14:31;13.80;55.10
21807;DHT22;11065;50.786;7.840;2023-02-12T15:17:04;13.80;55.10
21807;DHT22;11065;50.786;7.840;2023-02-12T15:19:40;13.90;55.20
21807;DHT22;11065;50.786;7.840;2023-02-12T15:22:19;13.90;55.10
21807;DHT22;11065;50.786;7.840;2023-02-12T15:24:50;13.70;54.90
21807;DHT22;11065;50.786;7.840;2023-02-12T15:27:18;13.70;55.00
21807;DHT22;11065;50.786;7.840;2023-02-12T15:29:49;13.70;55.00
21807;DHT22;11065;50.786;7.840;2023-02-12T15:32:21;13.70;54.90
21807;DHT22;11065;50.786;7.840;2023-02-12T15:34:50;13.70;54.90
21807;DHT22;11065;50.786;7.840;2023-02-12T15:37:22;13.70;54.90
21807;DHT22;11065;50.786;7.840;2023-02-12T15:39:54;13.70;54.90
21807;DHT22;11065;50.786;7.840;2023-02-12T15:42:26;13.70;54.90
21807;DHT22;11065;50.786;7.840;2023-02-12T15:48:00;13.50;54.90
21807;DHT22;11065;50.786;7.840;2023-02-12T15:50:29;13.50;54.90
21807;DHT22;11065;50.786;7.840;2023-02-12T15:52:58;13.50;55.00
21807;DHT22;11065;50.786;7.840;2023-02-12T15:55:33;13.40;55.00
21807;DHT22;11065;50.786;7.840;2023-02-12T15:58:19;13.40;55.00
21807;DHT22;11065;50.786;7.840;2023-02-12T16:00:48;13.40;55.00
21807;DHT22;11065;50.786;7.840;2023-02-12T16:03:21;13.40;55.10
21807;DHT22;11065;50.786;7.840;2023-02-12T16:05:50;13.40;55.10
21807;DHT22;11065;50.786;7.840;2023-02-12T16:08:21;13.30;55.10
21807;DHT22;11065;50.786;7.840;2023-02-12T16:10:52;13.30;55.10
21807;DHT22;11065;50.786;7.840;2023-02-12T16:13:27;13.30;55.10
21807;DHT22;11065;50.786;7.840;2023-02-12T16:16:06;13.30;55.10
21807;DHT22;11065;50.786;7.840;2023-02-12T16:18:34;13.30;55.10
21807;DHT22;11065;50.786;7.840;2023-02-12T16:21:04;13.30;55.10
21807;DHT22;11065;50.786;7.840;2023-02-12T16:23:34;13.20;55.10
21807;DHT22;11065;50.786;7.840;2023-02-12T16:26:04;13.20;55.20
21807;DHT22;11065;50.786;7.840;2023-02-12T16:28:32;13.20;55.20
21807;DHT22;11065;50.786;7.840;2023-02-12T16:31:09;13.20;55.20